sensor_id;sensor_type;location;lat;lon;timestamp;noise_LAeq;noise_LA_min;noise_LA_max;noise_LA01;noise_LA95
66454;Laerm;75808;51.436;5.978;2024-03-23T00:51:51;36.41;31.33;50.37;;
66454;Laerm;75808;51.436;5.978;2024-03-23T00:52:12;34.85;31.53;43.51;;
66454;Laerm;75808;51.436;5.978;2024-03-23T00:52:22;38.74;33.20;54.04;;
66454;Laerm;75808;51.436;5.978;2024-03-23T00:52:55;38.47;34.13;51.86;;
66454;Laerm;75808;51.436;5.978;2024-03-23T00:53:05;34.81;32.02;39.72;;
66454;Laerm;75808;51.436;5.978;2024-03-23T00:53:26;36.76;31.45;55.18;;
66454;Laerm;75808;51.436;5.978;2024-03-23T00:53:36;36.31;31.70;55.67;;
66454;Laerm;75808;51.436;5.978;2024-03-23T00:53:58;36.81;31.88;55.93;;
66454;Laerm;75808;51.436;5.978;2024-03-23T00:54:08;34.90;31.19;44.96;;
66454;Laerm;75808;51.436;5.978;2024-03-23T00:54:18;36.30;31.98;51.93;;
66454;Laerm;75808;51.436;5.978;2024-03-23T00:54:28;35.13;32.39;44.91;;
66454;Laerm;75808;51.436;5.978;2024-03-23T00:54:38;35.46;32.03;46.04;;
66454;Laerm;75808;51.436;5.978;2024-03-23T00:54:49;40.43;32.11;62.69;;
66454;Laerm;75808;51.436;5.978;2024-03-23T00:54:59;36.30;31.84;55.19;;
66454;Laerm;75808;51.436;5.978;2024-03-23T00:55:09;35.75;31.29;50.07;;
66454;Laerm;75808;51.436;5.978;2024-03-23T00:55:19;34.98;31.81;41.36;;
66454;Laerm;75808;51.436;5.978;2024-03-23T00:55:29;34.78;31.41;47.80;;
66454;Laerm;75808;51.436;5.978;2024-03-23T00:55:40;36.05;32.07;47.72;;
66454;Laerm;75808;51.436;5.978;2024-03-23T00:55:50;35.19;31.70;39.06;;
66454;Laerm;75808;51.436;5.978;2024-03-23T00:56:00;35.09;31.29;49.23;;
66454;Laerm;75808;51.436;5.978;2024-03-23T00:56:11;34.83;31.30;44.06;;
66454;Laerm;75808;51.436;5.978;2024-03-23T00:56:21;34.42;31.44;39.55;;
66454;Laerm;75808;51.436;5.978;2024-03-23T00:56:31;34.89;30.71;44.13;;
66454;Laerm;75808;51.436;5.978;2024-03-23T00:56:41;36.60;33.16;49.64;;
66454;Laerm;75808;51.436;5.978;2024-03-23T00:56:52;36.58;32.69;50.71;;
66454;Laerm;75808;51.436;5.978;2024-03-23T00:57:03;38.06;33.45;55.45;;
66454;Laerm;75808;51.436;5.978;2024-03-23T00:57:13;45.47;35.35;58.30;;
66454;Laerm;75808;51.436;5.978;2024-03-23T00:57:23;48.63;42.15;55.08;;
66454;Laerm;75808;51.436;5.978;2024-03-23T00:57:33;41.14;36.39;57.64;;
66454;Laerm;75808;51.436;5.978;2024-03-23T00:57:44;36.89;32.86;48.13;;
66454;Laerm;75808;51.436;5.978;2024-03-23T00:57:54;35.87;33.12;46.70;;
66454;Laerm;75808;51.436;5.978;2024-03-23T00:58:04;35.74;31.52;44.28;;
66454;Laerm;75808;51.436;5.978;2024-03-23T00:58:14;35.40;32.02;52.76;;
66454;Laerm;75808;51.436;5.978;2024-03-23T00:58:24;35.68;31.75;44.62;;
66454;Laerm;75808;51.436;5.978;2024-03-23T00:58:35;36.82;31.16;58.41;;
66454;Laerm;75808;51.436;5.978;2024-03-23T00:58:45;36.50;32.03;53.51;;
66454;Laerm;75808;51.436;5.978;2024-03-23T00:58:55;34.98;31.69;44.03;;
66454;Laerm;75808;51.436;5.978;2024-03-23T00:59:05;35.18;31.66;41.74;;
66454;Laerm;75808;51.436;5.978;2024-03-23T00:59:16;35.17;31.95;39.48;;
66454;Laerm;75808;51.436;5.978;2024-03-23T00:59:26;38.08;31.84;59.87;;
66454;Laerm;75808;51.436;5.978;2024-03-23T00:59:38;36.00;31.97;52.03;;
66454;Laerm;75808;51.436;5.978;2024-03-23T00:59:48;35.29;31.92;41.31;;
66454;Laerm;75808;51.436;5.978;2024-03-23T00:59:58;37.06;32.59;54.30;;
66454;Laerm;75808;51.436;5.978;2024-03-23T01:00:09;50.49;32.80;63.17;;
66454;Laerm;75808;51.436;5.978;2024-03-23T01:00:20;36.29;32.37;49.19;;
66454;Laerm;75808;51.436;5.978;2024-03-23T01:00:30;35.99;32.06;53.69;;
66454;Laerm;75808;51.436;5.978;2024-03-23T01:00:41;35.15;31.75;41.57;;
66454;Laerm;75808;51.436;5.978;2024-03-23T01:00:51;35.24;31.99;46.41;;
66454;Laerm;75808;51.436;5.978;2024-03-23T01:01:01;35.02;32.02;45.44;;
66454;Laerm;75808;51.436;5.978;2024-03-23T01:01:13;35.34;32.52;42.28;;
66454;Laerm;75808;51.436;5.978;2024-03-23T01:01:24;35.61;32.22;46.03;;
66454;Laerm;75808;51.436;5.978;2024-03-23T01:01:34;35.36;32.95;40.83;;
66454;Laerm;75808;51.436;5.978;2024-03-23T01:01:44;35.36;32.68;43.90;;
66454;Laerm;75808;51.436;5.978;2024-03-23T01:01:54;34.80;31.92;41.83;;
66454;Laerm;75808;51.436;5.978;2024-03-23T01:02:05;35.81;32.44;48.17;;
66454;Laerm;75808;51.436;5.978;2024-03-23T01:02:15;36.28;32.55;51.08;;
66454;Laerm;75808;51.436;5.978;2024-03-23T01:02:26;35.52;32.67;45.99;;
66454;Laerm;75808;51.436;5.978;2024-03-23T01:02:36;36.17;32.66;45.84;;
66454;Laerm;75808;51.436;5.978;2024-03-23T01:02:46;35.51;32.66;44.58;;
66454;Laerm;75808;51.436;5.978;2024-03-23T01:02:56;35.51;33.06;45.94;;
66454;Laerm;75808;51.436;5.978;2024-03-23T01:03:07;35.10;32.30;44.39;;
66454;Laerm;75808;51.436;5.978;2024-03-23T01:03:17;35.31;32.40;45.09;;
66454;Laerm;75808;51.436;5.978;2024-03-23T01:03:27;40.71;32.66;62.75;;
66454;Laerm;75808;51.436;5.978;2024-03-23T01:03:38;37.11;32.67;55.82;;
66454;Laerm;75808;51.436;5.978;2024-03-23T01:03:48;35.73;32.85;41.81;;
66454;Laerm;75808;51.436;5.978;2024-03-23T01:03:58;36.41;32.55;51.70;;
66454;Laerm;75808;51.436;5.978;2024-03-23T01:04:09;36.67;33.00;54.22;;
66454;Laerm;75808;51.436;5.978;2024-03-23T01:04:19;35.79;33.00;44.65;;
66454;Laerm;75808;51.436;5.978;2024-03-23T01:04:29;35.62;32.61;42.86;;
66454;Laerm;75808;51.436;5.978;2024-03-23T01:04:40;37.94;32.16;56.89;;
66454;Laerm;75808;51.436;5.978;2024-03-23T01:04:50;35.25;32.59;45.05;;
66454;Laerm;75808;51.436;5.978;2024-03-23T01:05:00;35.70;32.72;51.54;;
66454;Laerm;75808;51.436;5.978;2024-03-23T01:05:10;35.09;31.67;50.39;;
66454;Laerm;75808;51.436;5.978;2024-03-23T01:05:21;33.47;31.39;42.34;;
66454;Laerm;75808;51.436;5.978;2024-03-23T01:05:31;34.94;31.11;41.55;;
66454;Laerm;75808;51.436;5.978;2024-03-23T01:05:41;35.50;31.66;48.74;;
66454;Laerm;75808;51.436;5.978;2024-03-23T01:05:51;34.99;31.60;40.36;;
66454;Laerm;75808;51.436;5.978;2024-03-23T01:06:04;35.41;32.02;43.02;;
66454;Laerm;75808;51.436;5.978;2024-03-23T01:06:14;35.43;31.87;43.30;;
66454;Laerm;75808;51.436;5.978;2024-03-23T01:06:24;36.18;31.99;52.78;;
66454;Laerm;75808;51.436;5.978;2024-03-23T01:06:34;36.59;32.93;45.78;;
66454;Laerm;75808;51.436;5.978;2024-03-23T01:06:45;38.12;34.61;42.50;;
66454;Laerm;75808;51.436;5.978;2024-03-23T01:06:55;46.68;38.78;52.91;;
66454;Laerm;75808;51.436;5.978;2024-03-23T01:07:05;43.71;37.68;47.27;;
66454;Laerm;75808;51.436;5.978;2024-03-23T01:07:15;39.47;36.09;47.77;;
66454;Laerm;75808;51.436;5.978;2024-03-23T01:07:26;38.54;34.86;47.65;;
66454;Laerm;75808;51.436;5.978;2024-03-23T01:07:36;39.47;34.73;42.80;;
66454;Laerm;75808;51.436;5.978;2024-03-23T01:07:46;38.60;34.27;52.69;;
66454;Laerm;75808;51.436;5.978;2024-03-23T01:07:56;35.88;33.28;48.51;;
66454;Laerm;75808;51.436;5.978;2024-03-23T01:08:06;35.10;33.09;40.97;;
66454;Laerm;75808;51.436;5.978;2024-03-23T01:08:17;35.38;33.28;40.63;;
66454;Laerm;75808;51.436;5.978;2024-03-23T01:08:27;46.95;33.38;55.63;;
66454;Laerm;75808;51.436;5.978;2024-03-23T01:08:37;39.96;34.18;45.51;;
66454;Laerm;75808;51.436;5.978;2024-03-23T01:08:47;36.38;34.29;42.20;;
66454;Laerm;75808;51.436;5.978;2024-03-23T01:08:58;36.47;33.28;51.04;;
66454;Laerm;75808;51.436;5.978;2024-03-23T01:09:08;34.51;32.41;43.42;;
66454;Laerm;75808;51.436;5.978;2024-03-23T01:09:20;37.48;32.93;48.34;;
66454;Laerm;75808;51.436;5.978;2024-03-23T01:09:31;35.65;33.26;45.30;;
66454;Laerm;75808;51.436;5.978;2024-03-23T01:09:41;34.80;32.33;42.80;;
66454;Laerm;75808;51.436;5.978;2024-03-23T01:09:51;37.62;31.67;59.56;;
66454;Laerm;75808;51.436;5.978;2024-03-23T01:10:03;33.95;31.69;49.36;;
66454;Laerm;75808;51.436;5.978;2024-03-23T01:10:14;33.82;31.43;46.88;;
66454;Laerm;75808;51.436;5.978;2024-03-23T01:10:24;33.44;30.92;43.03;;
66454;Laerm;75808;51.436;5.978;2024-03-23T01:10:34;33.94;30.77;48.68;;
66454;Laerm;75808;51.436;5.978;2024-03-23T01:10:53;33.34;31.54;38.34;;
66454;Laerm;75808;51.436;5.978;2024-03-23T01:11:03;34.72;31.35;51.10;;
66454;Laerm;75808;51.436;5.978;2024-03-23T01:11:14;33.47;31.73;40.89;;
66454;Laerm;75808;51.436;5.978;2024-03-23T01:11:24;33.77;31.50;43.79;;
66454;Laerm;75808;51.436;5.978;2024-03-23T01:11:34;33.30;31.36;41.27;;
66454;Laerm;75808;51.436;5.978;2024-03-23T01:11:44;33.99;31.41;44.79;;
66454;Laerm;75808;51.436;5.978;2024-03-23T01:11:55;33.25;31.44;36.50;;
66454;Laerm;75808;51.436;5.978;2024-03-23T01:12:05;33.48;31.40;36.15;;
66454;Laerm;75808;51.436;5.978;2024-03-23T01:12:15;33.57;31.61;41.21;;
66454;Laerm;75808;51.436;5.978;2024-03-23T01:12:25;34.64;31.71;47.60;;
66454;Laerm;75808;51.436;5.978;2024-03-23T01:12:36;34.00;31.77;36.79;;
66454;Laerm;75808;51.436;5.978;2024-03-23T01:12:46;34.49;32.18;46.65;;
66454;Laerm;75808;51.436;5.978;2024-03-23T01:12:56;34.65;32.40;47.19;;
66454;Laerm;75808;51.436;5.978;2024-03-23T01:13:06;33.95;31.96;39.33;;
66454;Laerm;75808;51.436;5.978;2024-03-23T01:13:17;33.90;32.48;39.30;;
66454;Laerm;75808;51.436;5.978;2024-03-23T01:13:30;34.18;31.84;46.80;;
66454;Laerm;75808;51.436;5.978;2024-03-23T01:13:41;34.36;32.25;48.11;;
66454;Laerm;75808;51.436;5.978;2024-03-23T01:13:51;34.67;32.62;45.72;;
66454;Laerm;75808;51.436;5.978;2024-03-23T01:14:05;34.06;31.62;47.31;;
66454;Laerm;75808;51.436;5.978;2024-03-23T01:14:16;34.05;31.70;48.18;;
66454;Laerm;75808;51.436;5.978;2024-03-23T01:14:26;33.94;32.03;44.60;;
66454;Laerm;75808;51.436;5.978;2024-03-23T01:14:36;33.67;31.68;37.10;;
66454;Laerm;75808;51.436;5.978;2024-03-23T01:14:47;33.27;31.06;40.05;;
66454;Laerm;75808;51.436;5.978;2024-03-23T01:14:57;32.79;30.58;43.18;;
66454;Laerm;75808;51.436;5.978;2024-03-23T01:15:07;33.82;31.03;50.01;;
66454;Laerm;75808;51.436;5.978;2024-03-23T01:15:17;33.50;31.23;46.67;;
66454;Laerm;75808;51.436;5.978;2024-03-23T01:15:28;32.61;30.84;35.30;;
66454;Laerm;75808;51.436;5.978;2024-03-23T01:15:38;33.02;30.66;44.22;;
66454;Laerm;75808;51.436;5.978;2024-03-23T01:15:49;32.53;30.69;37.02;;
66454;Laerm;75808;51.436;5.978;2024-03-23T01:15:59;33.28;30.65;49.01;;
66454;Laerm;75808;51.436;5.978;2024-03-23T01:16:09;32.85;30.61;38.88;;
66454;Laerm;75808;51.436;5.978;2024-03-23T01:16:19;33.24;31.09;39.94;;
66454;Laerm;75808;51.436;5.978;2024-03-23T01:16:29;33.17;31.04;39.64;;
66454;Laerm;75808;51.436;5.978;2024-03-23T01:16:40;33.40;31.38;46.88;;
66454;Laerm;75808;51.436;5.978;2024-03-23T01:16:50;32.75;30.78;39.87;;
66454;Laerm;75808;51.436;5.978;2024-03-23T01:17:00;32.68;31.04;38.01;;
66454;Laerm;75808;51.436;5.978;2024-03-23T01:17:10;33.32;31.44;38.12;;
66454;Laerm;75808;51.436;5.978;2024-03-23T01:17:21;36.71;31.64;57.97;;
66454;Laerm;75808;51.436;5.978;2024-03-23T01:17:31;33.73;31.50;44.78;;
66454;Laerm;75808;51.436;5.978;2024-03-23T01:17:42;33.51;31.54;45.17;;
66454;Laerm;75808;51.436;5.978;2024-03-23T01:17:52;33.13;31.05;38.48;;
66454;Laerm;75808;51.436;5.978;2024-03-23T01:18:02;33.02;31.12;41.84;;
66454;Laerm;75808;51.436;5.978;2024-03-23T01:18:12;33.72;31.48;37.86;;
66454;Laerm;75808;51.436;5.978;2024-03-23T01:18:23;35.09;32.66;40.39;;
66454;Laerm;75808;51.436;5.978;2024-03-23T01:18:33;34.37;32.35;42.56;;
66454;Laerm;75808;51.436;5.978;2024-03-23T01:18:43;34.34;32.02;38.80;;
66454;Laerm;75808;51.436;5.978;2024-03-23T01:18:54;36.83;34.32;40.22;;
66454;Laerm;75808;51.436;5.978;2024-03-23T01:19:04;39.72;36.74;46.33;;
66454;Laerm;75808;51.436;5.978;2024-03-23T01:19:15;49.70;39.70;58.33;;
66454;Laerm;75808;51.436;5.978;2024-03-23T01:19:25;48.71;42.66;53.35;;
66454;Laerm;75808;51.436;5.978;2024-03-23T01:19:36;41.81;38.56;44.89;;
66454;Laerm;75808;51.436;5.978;2024-03-23T01:19:46;46.49;40.06;52.93;;
66454;Laerm;75808;51.436;5.978;2024-03-23T01:19:56;44.45;36.74;49.07;;
66454;Laerm;75808;51.436;5.978;2024-03-23T01:20:06;39.84;36.02;48.21;;
66454;Laerm;75808;51.436;5.978;2024-03-23T01:20:17;49.39;38.66;56.12;;
66454;Laerm;75808;51.436;5.978;2024-03-23T01:20:27;50.59;41.80;57.45;;
66454;Laerm;75808;51.436;5.978;2024-03-23T01:20:37;38.29;35.23;42.98;;
66454;Laerm;75808;51.436;5.978;2024-03-23T01:20:47;37.18;34.29;41.05;;
66454;Laerm;75808;51.436;5.978;2024-03-23T01:20:58;35.55;32.51;39.38;;
66454;Laerm;75808;51.436;5.978;2024-03-23T01:21:08;35.38;33.41;39.25;;
66454;Laerm;75808;51.436;5.978;2024-03-23T01:21:18;36.71;32.73;48.21;;
66454;Laerm;75808;51.436;5.978;2024-03-23T01:21:28;35.93;31.45;52.97;;
66454;Laerm;75808;51.436;5.978;2024-03-23T01:21:38;33.59;30.81;44.57;;
66454;Laerm;75808;51.436;5.978;2024-03-23T01:21:49;32.57;31.16;39.09;;
66454;Laerm;75808;51.436;5.978;2024-03-23T01:21:59;33.06;31.10;45.89;;
66454;Laerm;75808;51.436;5.978;2024-03-23T01:22:09;33.84;31.65;46.83;;
66454;Laerm;75808;51.436;5.978;2024-03-23T01:22:22;33.53;31.69;38.84;;
66454;Laerm;75808;51.436;5.978;2024-03-23T01:22:32;33.95;32.16;37.36;;
66454;Laerm;75808;51.436;5.978;2024-03-23T01:22:43;34.56;32.70;36.95;;
66454;Laerm;75808;51.436;5.978;2024-03-23T01:22:53;34.85;33.19;37.64;;
66454;Laerm;75808;51.436;5.978;2024-03-23T01:23:03;34.83;32.94;37.02;;
66454;Laerm;75808;51.436;5.978;2024-03-23T01:23:14;38.13;33.45;52.95;;
66454;Laerm;75808;51.436;5.978;2024-03-23T01:23:24;40.88;37.12;49.08;;
66454;Laerm;75808;51.436;5.978;2024-03-23T01:23:34;45.80;40.80;51.28;;
66454;Laerm;75808;51.436;5.978;2024-03-23T01:23:44;43.34;36.59;53.00;;
66454;Laerm;75808;51.436;5.978;2024-03-23T01:23:54;35.98;32.07;51.22;;
66454;Laerm;75808;51.436;5.978;2024-03-23T01:24:05;35.30;32.32;49.23;;
66454;Laerm;75808;51.436;5.978;2024-03-23T01:24:15;33.95;31.75;47.67;;
66454;Laerm;75808;51.436;5.978;2024-03-23T01:24:25;33.79;31.69;38.65;;
66454;Laerm;75808;51.436;5.978;2024-03-23T01:24:35;36.05;32.44;48.18;;
66454;Laerm;75808;51.436;5.978;2024-03-23T01:24:46;35.12;31.73;48.68;;
66454;Laerm;75808;51.436;5.978;2024-03-23T01:24:56;34.67;30.89;54.32;;
66454;Laerm;75808;51.436;5.978;2024-03-23T01:25:06;33.93;31.65;41.57;;
66454;Laerm;75808;51.436;5.978;2024-03-23T01:25:17;35.15;32.02;45.99;;
66454;Laerm;75808;51.436;5.978;2024-03-23T01:25:27;36.94;32.20;51.99;;
66454;Laerm;75808;51.436;5.978;2024-03-23T01:25:38;35.60;31.19;55.74;;
66454;Laerm;75808;51.436;5.978;2024-03-23T01:25:51;37.33;31.13;56.41;;
66454;Laerm;75808;51.436;5.978;2024-03-23T01:26:02;34.64;30.68;53.29;;
66454;Laerm;75808;51.436;5.978;2024-03-23T01:26:12;34.09;31.19;46.01;;
66454;Laerm;75808;51.436;5.978;2024-03-23T01:26:22;33.81;31.14;48.66;;
66454;Laerm;75808;51.436;5.978;2024-03-23T01:26:33;36.80;31.09;57.79;;
66454;Laerm;75808;51.436;5.978;2024-03-23T01:26:43;37.14;31.09;56.48;;
66454;Laerm;75808;51.436;5.978;2024-03-23T01:26:53;36.24;31.09;52.48;;
66454;Laerm;75808;51.436;5.978;2024-03-23T01:27:04;39.47;31.29;59.43;;
66454;Laerm;75808;51.436;5.978;2024-03-23T01:27:14;38.09;31.54;56.32;;
66454;Laerm;75808;51.436;5.978;2024-03-23T01:27:24;36.60;30.79;55.37;;
66454;Laerm;75808;51.436;5.978;2024-03-23T01:27:35;37.34;31.23;57.60;;
66454;Laerm;75808;51.436;5.978;2024-03-23T01:27:45;33.39;30.73;48.45;;
66454;Laerm;75808;51.436;5.978;2024-03-23T01:27:55;34.01;31.21;45.18;;
66454;Laerm;75808;51.436;5.978;2024-03-23T01:28:06;36.15;31.86;51.23;;
66454;Laerm;75808;51.436;5.978;2024-03-23T01:28:16;39.99;31.99;57.53;;
66454;Laerm;75808;51.436;5.978;2024-03-23T01:28:26;37.44;31.97;54.23;;
66454;Laerm;75808;51.436;5.978;2024-03-23T01:28:36;35.45;31.45;53.94;;
66454;Laerm;75808;51.436;5.978;2024-03-23T01:28:47;34.61;32.38;47.22;;
66454;Laerm;75808;51.436;5.978;2024-03-23T01:28:57;35.01;32.33;47.03;;
66454;Laerm;75808;51.436;5.978;2024-03-23T01:29:07;36.84;32.23;53.84;;
66454;Laerm;75808;51.436;5.978;2024-03-23T01:29:17;34.20;32.21;45.44;;
66454;Laerm;75808;51.436;5.978;2024-03-23T01:29:27;37.81;32.58;56.63;;
66454;Laerm;75808;51.436;5.978;2024-03-23T01:29:38;37.64;32.08;57.48;;
66454;Laerm;75808;51.436;5.978;2024-03-23T01:29:48;35.25;32.08;50.74;;
66454;Laerm;75808;51.436;5.978;2024-03-23T01:29:58;36.43;32.50;52.38;;
66454;Laerm;75808;51.436;5.978;2024-03-23T01:30:09;35.97;31.96;53.85;;
66454;Laerm;75808;51.436;5.978;2024-03-23T01:30:19;37.04;31.90;55.15;;
66454;Laerm;75808;51.436;5.978;2024-03-23T01:30:29;36.56;31.84;53.30;;
66454;Laerm;75808;51.436;5.978;2024-03-23T01:30:40;36.94;32.03;51.85;;
66454;Laerm;75808;51.436;5.978;2024-03-23T01:30:50;34.96;31.95;50.34;;
66454;Laerm;75808;51.436;5.978;2024-03-23T01:31:01;35.72;31.68;52.97;;
66454;Laerm;75808;51.436;5.978;2024-03-23T01:31:11;48.16;31.52;62.57;;
66454;Laerm;75808;51.436;5.978;2024-03-23T01:31:21;47.55;31.44;71.56;;
66454;Laerm;75808;51.436;5.978;2024-03-23T01:31:31;34.39;31.17;50.38;;
66454;Laerm;75808;51.436;5.978;2024-03-23T01:31:42;38.55;31.45;56.95;;
66454;Laerm;75808;51.436;5.978;2024-03-23T01:31:52;36.70;31.51;55.88;;
66454;Laerm;75808;51.436;5.978;2024-03-23T01:32:02;36.18;31.49;53.58;;
66454;Laerm;75808;51.436;5.978;2024-03-23T01:32:13;33.94;31.30;45.37;;
66454;Laerm;75808;51.436;5.978;2024-03-23T01:32:23;34.74;31.82;51.16;;
66454;Laerm;75808;51.436;5.978;2024-03-23T01:32:33;34.71;31.99;48.51;;
66454;Laerm;75808;51.436;5.978;2024-03-23T01:32:43;36.11;31.84;52.31;;
66454;Laerm;75808;51.436;5.978;2024-03-23T01:32:53;38.99;32.81;57.36;;
66454;Laerm;75808;51.436;5.978;2024-03-23T01:33:04;36.37;32.10;52.27;;
66454;Laerm;75808;51.436;5.978;2024-03-23T01:33:14;35.02;32.44;50.64;;
66454;Laerm;75808;51.436;5.978;2024-03-23T01:33:24;36.00;31.87;51.37;;
66454;Laerm;75808;51.436;5.978;2024-03-23T01:33:34;34.61;32.01;48.49;;
66454;Laerm;75808;51.436;5.978;2024-03-23T01:33:45;37.05;31.96;53.47;;
66454;Laerm;75808;51.436;5.978;2024-03-23T01:33:55;36.42;33.24;51.38;;
66454;Laerm;75808;51.436;5.978;2024-03-23T01:34:05;45.68;35.02;50.79;;
66454;Laerm;75808;51.436;5.978;2024-03-23T01:34:15;49.82;42.40;56.94;;
66454;Laerm;75808;51.436;5.978;2024-03-23T01:34:25;45.34;42.92;49.62;;
66454;Laerm;75808;51.436;5.978;2024-03-23T01:34:36;41.59;35.84;50.17;;
66454;Laerm;75808;51.436;5.978;2024-03-23T01:34:47;38.95;35.94;55.18;;
66454;Laerm;75808;51.436;5.978;2024-03-23T01:34:57;37.90;34.73;51.63;;
66454;Laerm;75808;51.436;5.978;2024-03-23T01:35:07;36.14;32.73;48.57;;
66454;Laerm;75808;51.436;5.978;2024-03-23T01:35:18;36.94;33.15;55.06;;
66454;Laerm;75808;51.436;5.978;2024-03-23T01:35:28;38.35;34.05;53.90;;
66454;Laerm;75808;51.436;5.978;2024-03-23T01:35:38;47.12;36.81;58.44;;
66454;Laerm;75808;51.436;5.978;2024-03-23T01:35:49;34.48;32.05;38.18;;
66454;Laerm;75808;51.436;5.978;2024-03-23T01:35:59;42.43;34.64;56.28;;
66454;Laerm;75808;51.436;5.978;2024-03-23T01:36:09;39.63;33.84;52.30;;
66454;Laerm;75808;51.436;5.978;2024-03-23T01:36:19;34.64;31.00;49.53;;
66454;Laerm;75808;51.436;5.978;2024-03-23T01:36:30;34.71;31.54;51.24;;
66454;Laerm;75808;51.436;5.978;2024-03-23T01:36:40;36.68;30.96;52.28;;
66454;Laerm;75808;51.436;5.978;2024-03-23T01:36:50;37.04;31.04;54.42;;
66454;Laerm;75808;51.436;5.978;2024-03-23T01:37:01;38.75;30.86;58.04;;
66454;Laerm;75808;51.436;5.978;2024-03-23T01:37:11;36.89;31.28;53.00;;
66454;Laerm;75808;51.436;5.978;2024-03-23T01:37:21;35.42;31.82;48.82;;
66454;Laerm;75808;51.436;5.978;2024-03-23T01:37:31;37.39;31.46;52.52;;
66454;Laerm;75808;51.436;5.978;2024-03-23T01:37:42;34.64;31.23;48.93;;
66454;Laerm;75808;51.436;5.978;2024-03-23T01:37:52;36.84;31.47;52.51;;
66454;Laerm;75808;51.436;5.978;2024-03-23T01:38:02;39.27;31.34;56.77;;
66454;Laerm;75808;51.436;5.978;2024-03-23T01:38:12;37.97;31.55;53.83;;
66454;Laerm;75808;51.436;5.978;2024-03-23T01:38:23;36.98;31.22;52.27;;
66454;Laerm;75808;51.436;5.978;2024-03-23T01:38:33;37.48;31.17;53.14;;
66454;Laerm;75808;51.436;5.978;2024-03-23T01:38:43;36.21;30.72;56.87;;
66454;Laerm;75808;51.436;5.978;2024-03-23T01:38:53;38.57;30.83;56.44;;
66454;Laerm;75808;51.436;5.978;2024-03-23T01:39:03;37.45;31.21;54.53;;
66454;Laerm;75808;51.436;5.978;2024-03-23T01:39:14;34.41;31.39;49.12;;
66454;Laerm;75808;51.436;5.978;2024-03-23T01:39:24;35.09;31.70;50.86;;
66454;Laerm;75808;51.436;5.978;2024-03-23T01:39:34;35.14;32.02;49.41;;
66454;Laerm;75808;51.436;5.978;2024-03-23T01:39:45;38.41;32.35;53.55;;
66454;Laerm;75808;51.436;5.978;2024-03-23T01:39:55;37.35;33.34;52.01;;
66454;Laerm;75808;51.436;5.978;2024-03-23T01:40:05;36.11;32.92;50.92;;
66454;Laerm;75808;51.436;5.978;2024-03-23T01:40:16;35.95;32.40;51.32;;
66454;Laerm;75808;51.436;5.978;2024-03-23T01:40:26;37.48;31.90;56.32;;
66454;Laerm;75808;51.436;5.978;2024-03-23T01:40:41;33.89;32.16;46.03;;
66454;Laerm;75808;51.436;5.978;2024-03-23T01:40:56;35.52;31.70;52.48;;
66454;Laerm;75808;51.436;5.978;2024-03-23T01:41:06;35.25;31.46;50.37;;
66454;Laerm;75808;51.436;5.978;2024-03-23T01:41:16;37.35;31.52;55.97;;
66454;Laerm;75808;51.436;5.978;2024-03-23T01:41:27;34.58;31.82;50.97;;
66454;Laerm;75808;51.436;5.978;2024-03-23T01:41:38;34.56;31.74;48.57;;
66454;Laerm;75808;51.436;5.978;2024-03-23T01:41:52;35.45;31.93;51.21;;
66454;Laerm;75808;51.436;5.978;2024-03-23T01:42:02;35.26;31.30;49.98;;
66454;Laerm;75808;51.436;5.978;2024-03-23T01:42:12;36.97;31.92;54.15;;
66454;Laerm;75808;51.436;5.978;2024-03-23T01:42:23;33.41;31.90;39.55;;
66454;Laerm;75808;51.436;5.978;2024-03-23T01:42:33;34.22;31.31;40.63;;
66454;Laerm;75808;51.436;5.978;2024-03-23T01:42:54;35.73;32.06;45.21;;
66454;Laerm;75808;51.436;5.978;2024-03-23T01:43:05;35.15;31.22;51.45;;
66454;Laerm;75808;51.436;5.978;2024-03-23T01:43:16;36.34;31.95;53.73;;
66454;Laerm;75808;51.436;5.978;2024-03-23T01:43:26;34.90;31.91;42.36;;
66454;Laerm;75808;51.436;5.978;2024-03-23T01:43:37;35.53;32.20;50.30;;
66454;Laerm;75808;51.436;5.978;2024-03-23T01:43:47;34.03;31.51;38.37;;
66454;Laerm;75808;51.436;5.978;2024-03-23T01:43:57;33.07;31.30;37.31;;
66454;Laerm;75808;51.436;5.978;2024-03-23T01:44:07;34.45;31.74;50.04;;
66454;Laerm;75808;51.436;5.978;2024-03-23T01:44:18;34.86;31.55;41.96;;
66454;Laerm;75808;51.436;5.978;2024-03-23T01:44:28;35.04;31.88;45.89;;
66454;Laerm;75808;51.436;5.978;2024-03-23T01:44:38;34.40;32.49;39.05;;
66454;Laerm;75808;51.436;5.978;2024-03-23T01:44:48;34.77;32.49;46.86;;
66454;Laerm;75808;51.436;5.978;2024-03-23T01:44:58;35.18;33.04;42.01;;
66454;Laerm;75808;51.436;5.978;2024-03-23T01:45:09;35.03;33.44;44.55;;
66454;Laerm;75808;51.436;5.978;2024-03-23T01:45:22;35.24;32.89;38.87;;
66454;Laerm;75808;51.436;5.978;2024-03-23T01:45:33;35.61;33.43;39.90;;
66454;Laerm;75808;51.436;5.978;2024-03-23T01:45:43;36.37;33.85;49.05;;
66454;Laerm;75808;51.436;5.978;2024-03-23T01:45:53;36.31;34.04;41.89;;
66454;Laerm;75808;51.436;5.978;2024-03-23T01:46:04;35.82;33.44;50.42;;
66454;Laerm;75808;51.436;5.978;2024-03-23T01:46:14;35.47;33.52;42.32;;
66454;Laerm;75808;51.436;5.978;2024-03-23T01:46:24;36.18;33.79;46.11;;
66454;Laerm;75808;51.436;5.978;2024-03-23T01:46:35;35.69;33.82;39.31;;
66454;Laerm;75808;51.436;5.978;2024-03-23T01:46:46;35.27;33.27;38.00;;
66454;Laerm;75808;51.436;5.978;2024-03-23T01:46:57;35.39;33.14;38.10;;
66454;Laerm;75808;51.436;5.978;2024-03-23T01:47:07;40.32;33.31;61.56;;
66454;Laerm;75808;51.436;5.978;2024-03-23T01:47:17;35.89;33.67;48.62;;
66454;Laerm;75808;51.436;5.978;2024-03-23T01:47:27;35.83;33.56;45.26;;
66454;Laerm;75808;51.436;5.978;2024-03-23T01:47:37;35.48;33.53;42.86;;
66454;Laerm;75808;51.436;5.978;2024-03-23T01:47:48;35.55;33.00;38.18;;
66454;Laerm;75808;51.436;5.978;2024-03-23T01:47:59;35.91;33.25;47.94;;
66454;Laerm;75808;51.436;5.978;2024-03-23T01:48:09;38.83;33.51;60.84;;
66454;Laerm;75808;51.436;5.978;2024-03-23T01:48:22;35.38;32.77;39.30;;
66454;Laerm;75808;51.436;5.978;2024-03-23T01:48:33;36.24;32.60;46.38;;
66454;Laerm;75808;51.436;5.978;2024-03-23T01:48:43;45.76;33.63;69.92;;
66454;Laerm;75808;51.436;5.978;2024-03-23T01:48:53;35.77;33.63;44.99;;
66454;Laerm;75808;51.436;5.978;2024-03-23T01:49:04;36.59;33.50;49.71;;
66454;Laerm;75808;51.436;5.978;2024-03-23T01:49:15;36.43;34.08;49.59;;
66454;Laerm;75808;51.436;5.978;2024-03-23T01:49:25;36.09;34.12;42.17;;
66454;Laerm;75808;51.436;5.978;2024-03-23T01:49:36;36.40;33.72;42.72;;
66454;Laerm;75808;51.436;5.978;2024-03-23T01:49:46;36.68;34.23;47.52;;
66454;Laerm;75808;51.436;5.978;2024-03-23T01:49:56;36.91;33.97;46.96;;
66454;Laerm;75808;51.436;5.978;2024-03-23T01:50:07;38.23;34.30;57.55;;
66454;Laerm;75808;51.436;5.978;2024-03-23T01:50:17;37.37;34.39;52.57;;
66454;Laerm;75808;51.436;5.978;2024-03-23T01:50:28;36.65;34.83;41.10;;
66454;Laerm;75808;51.436;5.978;2024-03-23T01:50:38;37.58;34.76;51.94;;
66454;Laerm;75808;51.436;5.978;2024-03-23T01:50:49;38.02;34.99;53.20;;
66454;Laerm;75808;51.436;5.978;2024-03-23T01:50:59;37.01;34.96;40.95;;
66454;Laerm;75808;51.436;5.978;2024-03-23T01:51:09;36.88;34.75;43.94;;
66454;Laerm;75808;51.436;5.978;2024-03-23T01:51:21;37.82;34.63;52.99;;